createdAt,value
2019-05-07T00:02:05.742Z,94162.46
2019-05-07T00:04:33.240Z,94158.94
2019-05-07T00:07:02.405Z,94155.27
2019-05-07T00:09:29.023Z,94152.89
2019-05-07T00:11:55.895Z,94158.62
2019-05-07T00:14:24.652Z,94152.61
2019-05-07T00:16:53.460Z,94154.83
2019-05-07T00:19:20.165Z,94151.92
2019-05-07T00:21:46.922Z,94150.02
2019-05-07T00:24:13.616Z,94152.09
2019-05-07T00:26:42.793Z,94160.08
2019-05-07T00:29:09.480Z,94160.31
2019-05-07T00:31:37.077Z,94165.74
2019-05-07T00:34:03.877Z,94158.38
2019-05-07T00:36:38.395Z,94165.41
2019-05-07T00:39:07.361Z,94160.45
2019-05-07T00:41:52.592Z,94168.13
2019-05-07T00:44:21.973Z,94165.78
2019-05-07T00:46:48.397Z,94167.03
2019-05-07T00:49:15.104Z,94168.68
2019-05-07T00:51:42.404Z,94173.70
2019-05-07T00:54:09.579Z,94175.63
2019-05-07T00:56:36.338Z,94188.59
2019-05-07T00:59:03.176Z,94187.31
2019-05-07T01:01:32.225Z,94183.85
2019-05-07T01:03:58.874Z,94187.68
2019-05-07T01:06:26.515Z,94199.96
2019-05-07T01:08:53.693Z,94184.59
2019-05-07T01:11:22.641Z,94191.08
2019-05-07T01:13:49.496Z,94192.73
2019-05-07T01:16:16.258Z,94197.05
2019-05-07T01:18:43.032Z,94202.63
2019-05-07T01:21:09.807Z,94194.81
2019-05-07T01:23:36.659Z,94197.82
2019-05-07T01:26:03.756Z,94204.38
2019-05-07T01:28:32.948Z,94205.63
2019-05-07T01:31:02.093Z,94207.16
2019-05-07T01:33:33.325Z,94213.38
2019-05-07T01:36:08.357Z,94211.02
2019-05-07T01:38:35.139Z,94211.88
2019-05-07T01:41:02.874Z,94212.80
2019-05-07T01:43:31.967Z,94214.55
2019-05-07T01:45:58.372Z,94221.31
2019-05-07T01:48:25.063Z,94219.66
2019-05-07T01:50:52.634Z,94219.97
2019-05-07T01:53:22.710Z,94207.80
2019-05-07T01:55:49.407Z,94222.08
2019-05-07T01:58:17.440Z,94217.58
2019-05-07T02:00:44.282Z,94211.91
2019-05-07T02:03:15.754Z,94215.92
2019-05-07T02:06:02.211Z,94214.42
2019-05-07T02:08:47.726Z,94208.36
2019-05-07T02:11:16.303Z,94216.94
2019-05-07T02:13:43.100Z,94203.77
2019-05-07T02:16:09.873Z,94209.70
2019-05-07T02:18:36.622Z,94207.28
2019-05-07T02:21:03.576Z,94210.53
2019-05-07T02:23:30.302Z,94221.34
2019-05-07T02:25:57.177Z,94216.63
2019-05-07T02:28:23.895Z,94213.75
2019-05-07T02:30:53.292Z,94212.41
2019-05-07T02:33:22.971Z,94214.02
2019-05-07T02:35:49.260Z,94206.19
2019-05-07T02:38:17.771Z,94211.81
2019-05-07T02:40:49.159Z,94212.06
2019-05-07T02:43:15.882Z,94208.30
2019-05-07T02:46:17.436Z,94217.98
2019-05-07T02:48:33.341Z,94209.55
2019-05-07T02:51:16.270Z,94210.06
2019-05-07T02:53:47.915Z,94216.26
2019-05-07T02:56:14.626Z,94220.58
2019-05-07T02:58:43.444Z,94222.17
2019-05-07T03:01:13.442Z,94227.88
2019-05-07T03:03:38.668Z,94224.37
2019-05-07T03:06:05.631Z,94230.23
2019-05-07T03:08:33.286Z,94231.61
2019-05-07T03:11:03.300Z,94229.98
2019-05-07T03:13:29.314Z,94234.48
2019-05-07T03:15:56.172Z,94231.06
2019-05-07T03:18:23.486Z,94235.75
2019-05-07T03:20:55.340Z,94234.80
2019-05-07T03:23:23.822Z,94238.78
2019-05-07T03:25:55.978Z,94237.95
2019-05-07T03:28:24.683Z,94239.64
2019-05-07T03:30:59.010Z,94236.42
2019-05-07T03:33:36.704Z,94234.48
2019-05-07T03:36:06.871Z,94239.27
2019-05-07T03:38:33.539Z,94238.31
2019-05-07T03:41:03.415Z,94239.64
2019-05-07T03:43:32.321Z,94246.28
2019-05-07T03:46:03.745Z,94245.97
2019-05-07T03:48:33.251Z,94255.30
2019-05-07T03:51:03.392Z,94252.99
2019-05-07T03:53:28.961Z,94250.33
2019-05-07T03:55:55.955Z,94257.77
2019-05-07T03:58:23.812Z,94261.02
2019-05-07T04:00:53.646Z,94258.26
2019-05-07T04:03:24.109Z,94265.00
2019-05-07T04:05:48.267Z,94267.77
2019-05-07T04:08:15.016Z,94272.33
2019-05-07T04:10:44.249Z,94276.56
2019-05-07T04:13:13.231Z,94282.13
2019-05-07T04:15:39.149Z,94273.45
2019-05-07T04:18:05.845Z,94274.77
2019-05-07T04:20:33.379Z,94277.53
2019-05-07T04:23:03.995Z,94281.75
2019-05-07T04:25:34.352Z,94280.65
2019-05-07T04:28:04.575Z,94284.70
2019-05-07T04:30:33.030Z,94288.95
2019-05-07T04:33:03.409Z,94284.84
2019-05-07T04:35:37.938Z,94286.50
2019-05-07T04:38:06.999Z,94290.86
2019-05-07T04:40:33.963Z,94293.87
2019-05-07T04:43:02.709Z,94291.72
2019-05-07T04:45:29.504Z,94301.41
2019-05-07T04:47:57.183Z,94301.58
2019-05-07T04:50:39.280Z,94301.58
2019-05-07T04:52:54.659Z,94299.71
2019-05-07T04:55:22.960Z,94305.08
2019-05-07T04:57:53.082Z,94306.14
2019-05-07T05:00:22.707Z,94307.49
2019-05-07T05:02:52.982Z,94305.23
2019-05-07T05:05:19.813Z,94301.91
2019-05-07T05:07:47.505Z,94306.59
2019-05-07T05:10:14.592Z,94311.61
2019-05-07T05:12:42.787Z,94314.98
2019-05-07T05:15:09.958Z,94317.92
2019-05-07T05:17:48.106Z,94315.20
2019-05-07T05:20:06.946Z,94313.39
2019-05-07T05:22:44.368Z,94318.64
2019-05-07T05:25:27.921Z,94310.81
2019-05-07T05:27:54.889Z,94308.31
2019-05-07T05:30:35.791Z,94313.83
2019-05-07T05:33:04.391Z,94314.81
2019-05-07T05:35:32.203Z,94317.48
2019-05-07T05:37:59.019Z,94320.30
2019-05-07T05:40:25.942Z,94316.52
2019-05-07T05:42:57.588Z,94311.27
2019-05-07T05:45:35.085Z,94312.58
2019-05-07T05:48:07.420Z,94311.56
2019-05-07T05:50:33.170Z,94304.28
2019-05-07T05:53:12.219Z,94306.02
2019-05-07T05:55:39.342Z,94312.21
2019-05-07T05:58:16.673Z,94309.78
2019-05-07T06:01:02.546Z,94314.30
2019-05-07T06:03:32.209Z,94307.10
2019-05-07T06:06:01.971Z,94318.20
2019-05-07T06:08:36.595Z,94321.98
2019-05-07T06:11:08.198Z,94330.42
2019-05-07T06:13:36.949Z,94332.16
2019-05-07T06:16:08.558Z,94317.85
2019-05-07T06:18:37.067Z,94323.47
2019-05-07T06:21:12.608Z,94321.04
2019-05-07T06:23:42.079Z,94325.68
2019-05-07T06:26:08.916Z,94326.80
2019-05-07T06:28:35.746Z,94322.80
2019-05-07T06:31:02.758Z,94327.81
2019-05-07T06:33:29.600Z,94320.34
2019-05-07T06:35:56.356Z,94331.45
2019-05-07T06:38:23.824Z,94341.58
2019-05-07T06:40:52.565Z,94331.23
2019-05-07T06:43:27.097Z,94334.06
2019-05-07T06:45:55.711Z,94336.20
2019-05-07T06:48:37.775Z,94327.30
2019-05-07T06:50:57.393Z,94338.03
2019-05-07T06:53:28.487Z,94340.11
2019-05-07T06:55:56.405Z,94340.88
2019-05-07T06:58:25.276Z,94335.46
2019-05-07T07:01:12.134Z,94333.39
2019-05-07T07:03:57.078Z,94335.19
2019-05-07T07:06:28.548Z,94331.89
2019-05-07T07:08:57.302Z,94333.38
2019-05-07T07:11:29.222Z,94339.44
2019-05-07T07:13:56.264Z,94340.78
2019-05-07T07:16:23.098Z,94344.30
2019-05-07T07:18:54.932Z,94333.60
2019-05-07T07:21:24.444Z,94335.08
2019-05-07T07:23:52.366Z,94342.07
2019-05-07T07:26:19.517Z,94338.66
2019-05-07T07:28:48.201Z,94342.80
2019-05-07T07:31:26.266Z,94344.78
2019-05-07T07:33:54.945Z,94339.30
2019-05-07T07:36:26.321Z,94347.33
2019-05-07T07:38:53.156Z,94349.75
2019-05-07T07:41:32.689Z,94354.44
2019-05-07T07:43:59.365Z,94356.00
2019-05-07T07:46:26.136Z,94362.99
2019-05-07T07:49:06.884Z,94361.36
2019-05-07T07:51:36.851Z,94363.38
2019-05-07T07:53:52.012Z,94366.40
2019-05-07T07:56:25.676Z,94371.77
2019-05-07T07:59:18.318Z,94370.82
2019-05-07T08:02:09.055Z,94382.30
2019-05-07T08:04:37.399Z,94377.14
2019-05-07T08:07:04.857Z,94385.08
2019-05-07T08:09:33.071Z,94392.16
2019-05-07T08:12:02.651Z,94390.65
2019-05-07T08:14:29.678Z,94394.73
2019-05-07T08:16:56.880Z,94390.25
2019-05-07T08:19:25.091Z,94388.07
2019-05-07T08:21:53.182Z,94401.14
2019-05-07T08:24:22.573Z,94391.84
2019-05-07T08:26:51.881Z,94390.54
2019-05-07T08:29:27.040Z,94397.89
2019-05-07T08:32:12.614Z,94397.77
2019-05-07T08:34:58.856Z,94403.17
2019-05-07T08:37:26.776Z,94405.13
2019-05-07T08:39:54.736Z,94422.03
2019-05-07T08:42:22.819Z,94417.78
2019-05-07T08:44:56.167Z,94429.95
2019-05-07T08:47:31.917Z,94432.78
2019-05-07T08:49:58.761Z,94436.25
2019-05-07T08:52:26.157Z,94437.41
2019-05-07T08:54:52.943Z,94432.31
2019-05-07T08:57:19.608Z,94440.71
2019-05-07T08:59:57.418Z,94442.97
2019-05-07T09:02:15.078Z,94444.05
2019-05-07T09:04:41.929Z,94449.09
2019-05-07T09:07:08.695Z,94451.19
2019-05-07T09:09:35.509Z,94460.37
2019-05-07T09:12:03.029Z,94456.06
2019-05-07T09:14:32.048Z,94451.52
2019-05-07T09:16:58.930Z,94457.21
2019-05-07T09:19:25.612Z,94455.84
2019-05-07T09:21:52.765Z,94454.76
2019-05-07T09:24:19.724Z,94456.31
2019-05-07T09:26:48.419Z,94462.18
2019-05-07T09:29:17.004Z,94473.16
2019-05-07T09:31:48.503Z,94461.33
2019-05-07T09:34:15.808Z,94462.94
2019-05-07T09:36:51.863Z,94464.45
2019-05-07T09:39:19.643Z,94460.95
2019-05-07T09:41:46.346Z,94472.91
2019-05-07T09:44:13.109Z,94468.97
2019-05-07T09:46:39.861Z,94471.25
2019-05-07T09:49:06.638Z,94473.87
2019-05-07T09:51:33.377Z,94473.11
2019-05-07T09:54:02.389Z,94470.11
2019-05-07T09:56:28.643Z,94468.77
2019-05-07T09:58:58.372Z,94465.52
2019-05-07T10:01:25.048Z,94451.30
2019-05-07T10:04:15.309Z,94461.97
2019-05-07T10:06:45.526Z,94458.57
2019-05-07T10:09:16.404Z,94460.76
2019-05-07T10:11:55.024Z,94452.08
2019-05-07T10:14:22.881Z,94457.69
2019-05-07T10:17:03.113Z,94473.79
2019-05-07T10:19:32.436Z,94479.78
2019-05-07T10:22:02.185Z,94482.53
2019-05-07T10:24:35.909Z,94497.78
2019-05-07T10:27:13.315Z,94494.34
2019-05-07T10:30:02.800Z,94491.03
2019-05-07T10:32:52.828Z,94492.52
2019-05-07T10:35:50.031Z,94494.11
2019-05-07T10:38:46.539Z,94505.19
2019-05-07T10:41:29.377Z,94507.86
2019-05-07T10:44:15.070Z,94500.56
2019-05-07T10:47:04.368Z,94508.44
2019-05-07T10:50:02.775Z,94512.53
2019-05-07T10:53:02.077Z,94515.80
2019-05-07T10:55:38.604Z,94513.58
2019-05-07T10:58:13.866Z,94513.13
2019-05-07T11:00:47.260Z,94512.13
2019-05-07T11:03:27.246Z,94508.03
2019-05-07T11:06:24.086Z,94521.95
2019-05-07T11:09:14.451Z,94516.30
2019-05-07T11:12:03.298Z,94518.69
2019-05-07T11:14:40.516Z,94525.75
2019-05-07T11:17:25.994Z,94523.08
2019-05-07T11:19:54.712Z,94528.63
2019-05-07T11:22:22.741Z,94528.61
2019-05-07T11:24:52.219Z,94535.15
2019-05-07T11:27:22.431Z,94531.66
2019-05-07T11:29:52.301Z,94539.75
2019-05-07T11:32:33.678Z,94541.95
2019-05-07T11:35:14.754Z,94548.05
2019-05-07T11:37:52.016Z,94548.91
2019-05-07T11:40:22.691Z,94546.18
2019-05-07T11:43:13.062Z,94547.07
2019-05-07T11:45:54.376Z,94551.14
2019-05-07T11:48:36.539Z,94554.91
2019-05-07T11:51:05.979Z,94558.11
2019-05-07T11:53:38.575Z,94560.03
2019-05-07T11:56:07.902Z,94561.61
2019-05-07T11:58:34.793Z,94563.80
2019-05-07T12:01:12.297Z,94559.27
2019-05-07T12:03:39.615Z,94570.88
2019-05-07T12:06:54.695Z,94577.32
2019-05-07T12:09:21.862Z,94568.24
2019-05-07T12:11:48.664Z,94567.90
2019-05-07T12:14:28.111Z,94578.78
2019-05-07T12:16:43.980Z,94576.65
2019-05-07T12:19:12.670Z,94573.70
2019-05-07T12:21:39.379Z,94578.53
2019-05-07T12:24:06.162Z,94575.50
2019-05-07T12:26:34.670Z,94576.08
2019-05-07T12:29:01.402Z,94581.49
2019-05-07T12:31:36.018Z,94576.94
2019-05-07T12:34:04.588Z,94583.68
2019-05-07T12:36:32.010Z,94582.08
2019-05-07T12:38:59.049Z,94573.70
2019-05-07T12:41:34.537Z,94585.03
2019-05-07T12:44:04.585Z,94582.86
2019-05-07T12:46:33.415Z,94586.14
2019-05-07T12:49:02.865Z,94589.63
2019-05-07T12:51:34.518Z,94591.50
2019-05-07T12:54:17.865Z,94591.59
2019-05-07T12:56:44.789Z,94590.25
2019-05-07T12:59:12.827Z,94597.50
2019-05-07T13:01:47.491Z,94601.53
2019-05-07T13:04:19.022Z,94596.14
2019-05-07T13:06:53.671Z,94602.41
2019-05-07T13:09:21.941Z,94612.08
2019-05-07T13:11:48.782Z,94607.78
2019-05-07T13:14:15.599Z,94612.61
2019-05-07T13:16:42.277Z,94613.19
2019-05-07T13:19:08.986Z,94618.00
2019-05-07T13:21:45.901Z,94619.87
2019-05-07T13:24:04.441Z,94622.80
2019-05-07T13:26:32.267Z,94631.98
2019-05-07T13:28:59.339Z,94635.72
2019-05-07T13:31:27.898Z,94626.66
2019-05-07T13:33:55.786Z,94638.25
2019-05-07T13:36:22.658Z,94638.23
2019-05-07T13:39:07.939Z,94631.52
2019-05-07T13:41:41.337Z,94630.72
2019-05-07T13:44:19.366Z,94628.30
2019-05-07T13:46:47.726Z,94634.70
2019-05-07T13:49:14.420Z,94631.74
2019-05-07T13:51:42.169Z,94633.05
2019-05-07T13:54:12.698Z,94633.91
2019-05-07T13:56:38.943Z,94637.42
2019-05-07T13:59:05.642Z,94644.16
2019-05-07T14:01:37.265Z,94645.00
2019-05-07T14:04:04.305Z,94643.62
2019-05-07T14:06:39.921Z,94654.12
2019-05-07T14:09:16.711Z,94650.59
2019-05-07T14:11:43.607Z,94652.49
2019-05-07T14:14:12.286Z,94660.62
2019-05-07T14:16:39.321Z,94666.00
2019-05-07T14:19:06.042Z,94657.91
2019-05-07T14:21:32.721Z,94669.48
2019-05-07T14:23:59.642Z,94664.08
2019-05-07T14:26:26.352Z,94669.18
2019-05-07T14:28:53.029Z,94671.11
2019-05-07T14:31:19.778Z,94674.63
2019-05-07T14:33:54.597Z,94670.64
2019-05-07T14:36:23.333Z,94682.23
2019-05-07T14:38:54.007Z,94692.75
2019-05-07T14:41:25.318Z,94691.39
2019-05-07T14:44:03.122Z,94696.48
2019-05-07T14:46:43.651Z,94694.86
2019-05-07T14:48:58.866Z,94696.00
2019-05-07T14:51:25.752Z,94695.70
2019-05-07T14:53:52.472Z,94691.66
2019-05-07T14:56:19.174Z,94696.25
2019-05-07T14:58:46.028Z,94698.45
2019-05-07T15:01:13.031Z,94693.32
2019-05-07T15:03:39.751Z,94694.68
2019-05-07T15:06:06.626Z,94710.34
2019-05-07T15:08:34.441Z,94703.08
2019-05-07T15:11:02.790Z,94700.38
2019-05-07T15:13:32.156Z,94699.05
2019-05-07T15:15:59.268Z,94704.14
2019-05-07T15:18:42.987Z,94701.45
2019-05-07T15:21:12.217Z,94701.19
2019-05-07T15:23:42.296Z,94700.66
2019-05-07T15:26:09.150Z,94705.25
2019-05-07T15:28:37.860Z,94697.95
2019-05-07T15:31:09.261Z,94696.59
2019-05-07T15:33:35.937Z,94704.41
2019-05-07T15:36:03.332Z,94712.21
2019-05-07T15:38:32.392Z,94717.92
2019-05-07T15:40:59.532Z,94703.89
2019-05-07T15:43:26.615Z,94704.13
2019-05-07T15:45:53.377Z,94710.08
2019-05-07T15:48:22.030Z,94711.98
2019-05-07T15:50:48.809Z,94700.93
2019-05-07T15:53:21.909Z,94714.16
2019-05-07T15:55:48.765Z,94712.54
2019-05-07T15:58:15.432Z,94706.34
2019-05-07T16:00:42.655Z,94710.14
2019-05-07T16:03:17.291Z,94718.47
2019-05-07T16:05:44.046Z,94720.36
2019-05-07T16:08:12.660Z,94721.16
2019-05-07T16:10:39.363Z,94722.80
2019-05-07T16:13:06.894Z,94722.52
2019-05-07T16:15:33.716Z,94729.55
2019-05-07T16:18:05.269Z,94725.47
2019-05-07T16:20:32.689Z,94727.91
2019-05-07T16:23:14.302Z,94732.23
2019-05-07T16:25:32.830Z,94728.72
2019-05-07T16:28:02.101Z,94738.66
2019-05-07T16:30:28.843Z,94737.59
2019-05-07T16:32:55.672Z,94748.92
2019-05-07T16:35:22.834Z,94747.02
2019-05-07T16:37:49.685Z,94756.19
2019-05-07T16:40:16.772Z,94763.77
2019-05-07T16:42:43.662Z,94758.11
2019-05-07T16:45:13.034Z,94755.95
2019-05-07T16:47:39.614Z,94763.77
2019-05-07T16:50:07.560Z,94775.62
2019-05-07T16:52:35.213Z,94775.62
2019-05-07T16:55:03.225Z,94776.96
2019-05-07T16:57:51.543Z,94776.97
2019-05-07T17:00:24.567Z,94787.50
2019-05-07T17:02:53.174Z,94794.50
2019-05-07T17:05:19.886Z,94778.04
2019-05-07T17:07:48.491Z,94782.89
2019-05-07T17:10:16.592Z,94788.81
2019-05-07T17:12:44.742Z,94798.82
2019-05-07T17:15:12.637Z,94795.30
2019-05-07T17:17:39.419Z,94795.57
2019-05-07T17:20:07.005Z,94794.78
2019-05-07T17:22:33.927Z,94795.04
2019-05-07T17:25:03.159Z,94803.37
2019-05-07T17:27:32.063Z,94802.87
2019-05-07T17:29:58.848Z,94804.73
2019-05-07T17:32:25.513Z,94810.67
2019-05-07T17:34:53.230Z,94815.00
2019-05-07T17:37:19.987Z,94821.20
2019-05-07T17:39:46.781Z,94816.86
2019-05-07T17:42:13.477Z,94822.55
2019-05-07T17:44:40.238Z,94827.39
2019-05-07T17:47:07.182Z,94821.45
2019-05-07T17:49:36.298Z,94828.19
2019-05-07T17:52:03.048Z,94833.33
2019-05-07T17:54:31.690Z,94838.72
2019-05-07T17:56:58.487Z,94835.23
2019-05-07T17:59:25.323Z,94836.03
2019-05-07T18:02:08.725Z,94845.47
2019-05-07T18:04:48.544Z,94853.27
2019-05-07T18:07:05.964Z,94860.56
2019-05-07T18:09:32.661Z,94857.08
2019-05-07T18:11:59.569Z,94858.41
2019-05-07T18:14:26.388Z,94863.52
2019-05-07T18:16:57.664Z,94863.81
2019-05-07T18:19:24.719Z,94868.40
2019-05-07T18:21:52.445Z,94873.25
2019-05-07T18:24:19.256Z,94876.49
2019-05-07T18:26:46.328Z,94882.70
2019-05-07T18:29:13.023Z,94885.39
2019-05-07T18:31:47.325Z,94875.67
2019-05-07T18:34:14.206Z,94888.35
2019-05-07T18:36:42.226Z,94899.13
2019-05-07T18:39:09.130Z,94906.41
2019-05-07T18:41:35.972Z,94902.63
2019-05-07T18:44:12.203Z,94916.91
2019-05-07T18:46:32.737Z,94918.00
2019-05-07T18:48:59.678Z,94912.87
2019-05-07T18:51:26.566Z,94907.19
2019-05-07T18:53:53.370Z,94907.70
2019-05-07T18:56:22.119Z,94905.84
2019-05-07T18:58:48.926Z,94908.78
2019-05-07T19:01:17.097Z,94915.78
2019-05-07T19:03:44.053Z,94913.92
2019-05-07T19:06:13.142Z,94927.11
2019-05-07T19:08:42.076Z,94935.18
2019-05-07T19:11:08.665Z,94934.91
2019-05-07T19:13:35.674Z,94935.41
2019-05-07T19:16:03.849Z,94942.70
2019-05-07T19:18:32.227Z,94931.92
2019-05-07T19:20:59.070Z,94939.45
2019-05-07T19:23:25.915Z,94933.81
2019-05-07T19:25:52.715Z,94932.16
2019-05-07T19:28:19.488Z,94944.29
2019-05-07T19:30:46.395Z,94942.43
2019-05-07T19:33:13.314Z,94942.94
2019-05-07T19:35:41.863Z,94943.22
2019-05-07T19:38:08.929Z,94940.78
2019-05-07T19:40:35.747Z,94944.83
2019-05-07T19:43:03.089Z,94941.07
2019-05-07T19:45:30.121Z,94942.68
2019-05-07T19:47:56.838Z,94943.22
2019-05-07T19:50:23.574Z,94939.98
2019-05-07T19:52:52.203Z,94938.91
2019-05-07T19:55:19.021Z,94940.53
2019-05-07T19:57:47.547Z,94935.39
2019-05-07T20:00:15.008Z,94943.78
2019-05-07T20:02:49.696Z,94933.80
2019-05-07T20:05:16.614Z,94943.49
2019-05-07T20:07:43.321Z,94936.48
2019-05-07T20:10:12.100Z,94944.03
2019-05-07T20:12:38.987Z,94940.23
2019-05-07T20:15:06.222Z,94937.30
2019-05-07T20:17:33.951Z,94944.84
2019-05-07T20:20:03.172Z,94938.09
2019-05-07T20:22:30.039Z,94936.76
2019-05-07T20:24:56.740Z,94940.25
2019-05-07T20:27:23.762Z,94930.30
2019-05-07T20:29:52.360Z,94932.14
2019-05-07T20:32:22.167Z,94928.66
2019-05-07T20:34:48.825Z,94926.77
2019-05-07T20:37:15.603Z,94935.92
2019-05-07T20:39:42.726Z,94930.81
2019-05-07T20:42:09.708Z,94921.92
2019-05-07T20:44:36.373Z,94931.89
2019-05-07T20:47:03.270Z,94927.55
2019-05-07T20:49:32.015Z,94930.80
2019-05-07T20:51:58.677Z,94929.44
2019-05-07T20:54:27.226Z,94937.81
2019-05-07T20:56:55.802Z,94934.33
2019-05-07T20:59:22.579Z,94937.27
2019-05-07T21:01:49.282Z,94938.63
2019-05-07T21:04:16.826Z,94939.67
2019-05-07T21:06:43.733Z,94939.43
2019-05-07T21:09:12.640Z,94935.38
2019-05-07T21:11:39.522Z,94934.27
2019-05-07T21:14:06.216Z,94942.11
2019-05-07T21:16:33.069Z,94937.80
2019-05-07T21:19:01.965Z,94935.09
2019-05-07T21:21:28.710Z,94943.17
2019-05-07T21:23:55.374Z,94939.41
2019-05-07T21:26:22.610Z,94941.02
2019-05-07T21:28:49.380Z,94944.81
2019-05-07T21:31:16.266Z,94946.97
2019-05-07T21:33:43.060Z,94944.27
2019-05-07T21:36:12.149Z,94944.27
2019-05-07T21:38:38.580Z,94945.89
2019-05-07T21:41:05.336Z,94946.95
2019-05-07T21:43:32.659Z,94947.48
2019-05-07T21:45:59.524Z,94947.25
2019-05-07T21:48:26.318Z,94949.41
2019-05-07T21:50:53.806Z,94946.97
2019-05-07T21:53:25.126Z,94948.59
2019-05-07T21:56:05.295Z,94947.81
2019-05-07T21:58:33.254Z,94945.63
2019-05-07T22:01:12.516Z,94944.83
2019-05-07T22:03:43.951Z,94947.54
2019-05-07T22:06:12.918Z,94941.89
2019-05-07T22:08:39.589Z,94942.98
2019-05-07T22:11:06.288Z,94937.86
2019-05-07T22:13:33.149Z,94945.69
2019-05-07T22:16:02.034Z,94946.48
2019-05-07T22:18:28.577Z,94944.84
2019-05-07T22:20:55.266Z,94942.43
2019-05-07T22:26:20.061Z,94946.48
2019-05-07T22:28:37.928Z,94938.66
2019-05-07T22:31:12.771Z,94939.47
2019-05-07T22:33:41.783Z,94939.21
2019-05-07T22:36:12.543Z,94938.66
2019-05-07T22:38:40.747Z,94931.13
2019-05-07T22:41:09.252Z,94937.86
2019-05-07T22:43:36.007Z,94932.22
2019-05-07T22:46:02.945Z,94937.88
2019-05-07T22:48:29.648Z,94939.77
2019-05-07T22:50:56.396Z,94940.31
2019-05-07T22:53:23.202Z,94935.19
2019-05-07T22:55:52.381Z,94933.84
2019-05-07T22:58:22.005Z,94933.58
2019-05-07T23:00:50.726Z,94931.70
2019-05-07T23:03:17.422Z,94935.19
2019-05-07T23:05:44.918Z,94930.09
2019-05-07T23:08:12.782Z,94922.55
2019-05-07T23:10:39.621Z,94924.95
2019-05-07T23:13:06.324Z,94921.72
2019-05-07T23:15:33.225Z,94921.46
2019-05-07T23:18:04.188Z,94923.35
2019-05-07T23:20:28.786Z,94930.89
2019-05-07T23:22:55.618Z,94931.95
2019-05-07T23:25:24.437Z,94930.34
2019-05-07T23:27:52.493Z,94927.66
2019-05-07T23:30:22.347Z,94931.69
2019-05-07T23:32:49.157Z,94934.94
2019-05-07T23:35:16.025Z,94939.52
2019-05-07T23:37:44.282Z,94936.83
2019-05-07T23:40:29.873Z,94949.54
2019-05-07T23:42:58.498Z,94946.52
2019-05-07T23:45:25.183Z,94950.30
2019-05-07T23:47:52.001Z,94943.56
2019-05-07T23:50:18.828Z,94945.72
2019-05-07T23:52:45.512Z,94948.16
2019-05-07T23:55:12.259Z,94950.05
2019-05-07T23:57:39.106Z,94945.75
